Ottoman Nobility — TCDA2 — position and weather

sailwx.info

Track history (hours):
 
Tides and Currents Weather Stations Pressure Air Temp Water Temp Dewpoint Dewpoint Depression Visibility Wind Speed Wind Dir Waves Ship Positions

Ottoman Nobility

Last reported at 2016-Apr-17 21:33 UTC. Time now 2016-May-03 08:48 UTC.
Position N 27°38' W 015°14'.
Warning: this ship's position is 15 days out of date.

; draft 8.6 m.

Type: Ship. MMSI: 271000773.

Date/timePositionNaut miles runAvg speedWind from/ knotsBaromVisibWave heightAir tempDewpointWater temp
2016-Apr-17 21:33N 27°38' W 015°14'1414.3
2016-Apr-17 20:33N 27°52' W 015°13'1313.5
2016-Apr-17 19:33N 28°05' W 015°16'5 5.2
2016-Apr-17 18:34N 28°10' W 015°16'1414.3
2016-Apr-17 17:34N 28°20' W 015°04'1514.7
2016-Apr-17 16:33N 28°30' W 014°52'1514.6
2016-Apr-17 15:33N 28°40' W 014°40'1414.4
2016-Apr-17 14:34N 28°51' W 014°29'  
2016-Apr-11 13:33N 35°59' W 005°31'9 9.1
2016-Apr-11 12:33N 36°05' W 005°23'8 7.6
2016-Apr-11 11:33N 35°58' W 005°27'21810.2
2016-Apr-10 14:05N 37°36' W 009°31'611.9
2016-Apr-10 13:33N 37°42' W 009°31'1212.0
2016-Apr-10 12:33N 37°54' W 009°30'1212.0
2016-Apr-10 11:33N 38°06' W 009°28'1212.0
2016-Apr-10 10:34N 38°18' W 009°27'1212.1
2016-Apr-10 09:33N 38°30' W 009°25'7 7.3
2016-Apr-10 08:33N 38°37' W 009°23'10 9.6
2016-Apr-10 07:33N 38°41' W 009°11'0 0.1
2016-Apr-10 04:28N 38°41' W 009°11'0 0.1
2016-Apr-09 23:16N 38°41' W 009°11'0 0.1
2016-Apr-09 22:31N 38°41' W 009°11'0 0.0
2016-Apr-09 20:19N 38°41' W 009°11'0 0.0
2016-Apr-09 17:33N 38°41' W 009°11'7 7.2
2016-Apr-09 16:32N 38°39' W 009°20'6 6.2
2016-Apr-09 15:33N 38°38' W 009°28'9 9.3
2016-Apr-09 14:33N 38°31' W 009°36'6 5.5
2016-Apr-09 13:33N 38°26' W 009°40'2 1.8
2016-Apr-09 12:33N 38°28' W 009°39'4 3.9
2016-Apr-09 11:33N 38°31' W 009°36'5 5.3
2016-Apr-09 10:33N 38°34' W 009°31'3 2.8
2016-Apr-09 09:33N 38°35' W 009°34'1211.5
2016-Apr-09 08:33N 38°33' W 009°49'1010.4
2016-Apr-09 07:33N 38°32' W 010°02'1110.8
2016-Apr-09 06:33N 38°42' W 010°06'1211.4
2016-Apr-09 05:33N 38°53' W 010°06'1211.5
2016-Apr-09 04:33N 39°05' W 010°06'1111.3
2016-Apr-09 03:33N 39°16' W 010°06'  
Track history (hours):
 
Tides and Currents Weather Stations Pressure Air Temp Water Temp Dewpoint Dewpoint Depression Visibility Wind Speed Wind Dir Waves Ship Positions

Ottoman Nobility

Last reported at 2016-Apr-17 21:33 UTC. Time now 2016-May-03 08:48 UTC.
Position N 27°38' W 015°14'.
Warning: this ship's position is 15 days out of date.

; draft 8.6 m.

Type: Ship. MMSI: 271000773.

Date/timePositionNaut miles runAvg speedWind from/ knotsBaromVisibWave heightAir tempDewpointWater temp
2016-Apr-17 21:33N 27°38' W 015°14'1414.3
2016-Apr-17 20:33N 27°52' W 015°13'1313.5
2016-Apr-17 19:33N 28°05' W 015°16'5 5.2
2016-Apr-17 18:34N 28°10' W 015°16'1414.3
2016-Apr-17 17:34N 28°20' W 015°04'1514.7
2016-Apr-17 16:33N 28°30' W 014°52'1514.6
2016-Apr-17 15:33N 28°40' W 014°40'1414.4
2016-Apr-17 14:34N 28°51' W 014°29'  
2016-Apr-11 13:33N 35°59' W 005°31'9 9.1
2016-Apr-11 12:33N 36°05' W 005°23'8 7.6
2016-Apr-11 11:33N 35°58' W 005°27'21810.2
2016-Apr-10 14:05N 37°36' W 009°31'611.9
2016-Apr-10 13:33N 37°42' W 009°31'1212.0
2016-Apr-10 12:33N 37°54' W 009°30'1212.0
2016-Apr-10 11:33N 38°06' W 009°28'1212.0
2016-Apr-10 10:34N 38°18' W 009°27'1212.1
2016-Apr-10 09:33N 38°30' W 009°25'7 7.3
2016-Apr-10 08:33N 38°37' W 009°23'10 9.6
2016-Apr-10 07:33N 38°41' W 009°11'0 0.1
2016-Apr-10 04:28N 38°41' W 009°11'0 0.1
2016-Apr-09 23:16N 38°41' W 009°11'0 0.1
2016-Apr-09 22:31N 38°41' W 009°11'0 0.0
2016-Apr-09 20:19N 38°41' W 009°11'0 0.0
2016-Apr-09 17:33N 38°41' W 009°11'7 7.2
2016-Apr-09 16:32N 38°39' W 009°20'6 6.2
2016-Apr-09 15:33N 38°38' W 009°28'9 9.3
2016-Apr-09 14:33N 38°31' W 009°36'6 5.5
2016-Apr-09 13:33N 38°26' W 009°40'2 1.8
2016-Apr-09 12:33N 38°28' W 009°39'4 3.9
2016-Apr-09 11:33N 38°31' W 009°36'5 5.3
2016-Apr-09 10:33N 38°34' W 009°31'3 2.8
2016-Apr-09 09:33N 38°35' W 009°34'1211.5
2016-Apr-09 08:33N 38°33' W 009°49'1010.4
2016-Apr-09 07:33N 38°32' W 010°02'1110.8
2016-Apr-09 06:33N 38°42' W 010°06'1211.4
2016-Apr-09 05:33N 38°53' W 010°06'1211.5
2016-Apr-09 04:33N 39°05' W 010°06'1111.3
2016-Apr-09 03:33N 39°16' W 010°06'  

Dump ship's entire track history